sensor_id;sensor_type;location;lat;lon;timestamp;pressure;altitude;pressure_sealevel;temperature;humidity
13604;BME280;24578;48.264;11.436;2023-03-13T00:00:59;95832.38;;;5.46;100.00
13604;BME280;24578;48.264;11.436;2023-03-13T00:04:21;95827.53;;;5.56;100.00
13604;BME280;24578;48.264;11.436;2023-03-13T00:07:43;95827.72;;;5.68;100.00
13604;BME280;24578;48.264;11.436;2023-03-13T00:11:10;95818.63;;;5.62;100.00
13604;BME280;24578;48.264;11.436;2023-03-13T00:14:32;95812.47;;;5.50;100.00
13604;BME280;24578;48.264;11.436;2023-03-13T00:17:53;95825.31;;;5.50;100.00
13604;BME280;24578;48.264;11.436;2023-03-13T00:21:17;95820.09;;;5.52;100.00
13604;BME280;24578;48.264;11.436;2023-03-13T00:24:39;95813.13;;;5.54;100.00
13604;BME280;24578;48.264;11.436;2023-03-13T00:28:01;95813.56;;;5.46;100.00
13604;BME280;24578;48.264;11.436;2023-03-13T00:31:28;95806.25;;;5.40;100.00
13604;BME280;24578;48.264;11.436;2023-03-13T00:34:50;95791.34;;;5.30;100.00
13604;BME280;24578;48.264;11.436;2023-03-13T00:38:11;95789.44;;;5.20;100.00
13604;BME280;24578;48.264;11.436;2023-03-13T00:41:35;95784.81;;;5.10;100.00
13604;BME280;24578;48.264;11.436;2023-03-13T00:44:57;95782.06;;;4.99;100.00
13604;BME280;24578;48.264;11.436;2023-03-13T00:48:19;95774.78;;;4.91;100.00
13604;BME280;24578;48.264;11.436;2023-03-13T00:51:41;95772.69;;;4.98;100.00
13604;BME280;24578;48.264;11.436;2023-03-13T00:55:03;95780.03;;;4.90;100.00
13604;BME280;24578;48.264;11.436;2023-03-13T00:58:27;95782.28;;;4.80;100.00
13604;BME280;24578;48.264;11.436;2023-03-13T01:01:49;95778.13;;;4.77;100.00
13604;BME280;24578;48.264;11.436;2023-03-13T01:05:10;95770.69;;;4.72;100.00
13604;BME280;24578;48.264;11.436;2023-03-13T01:08:34;95763.59;;;4.62;100.00
13604;BME280;24578;48.264;11.436;2023-03-13T01:11:55;95757.19;;;4.54;100.00
13604;BME280;24578;48.264;11.436;2023-03-13T01:15:17;95756.03;;;4.44;100.00
13604;BME280;24578;48.264;11.436;2023-03-13T01:18:42;95756.53;;;4.35;100.00
13604;BME280;24578;48.264;11.436;2023-03-13T01:22:04;95752.59;;;4.29;100.00
13604;BME280;24578;48.264;11.436;2023-03-13T01:25:26;95744.00;;;4.14;100.00
13604;BME280;24578;48.264;11.436;2023-03-13T01:28:48;95762.34;;;4.06;100.00
13604;BME280;24578;48.264;11.436;2023-03-13T01:32:10;95747.63;;;3.94;100.00
13604;BME280;24578;48.264;11.436;2023-03-13T01:35:32;95751.44;;;3.87;100.00
13604;BME280;24578;48.264;11.436;2023-03-13T01:38:56;95753.50;;;3.80;100.00
13604;BME280;24578;48.264;11.436;2023-03-13T01:42:18;95753.91;;;3.88;100.00
13604;BME280;24578;48.264;11.436;2023-03-13T01:45:53;95755.41;;;3.92;100.00
13604;BME280;24578;48.264;11.436;2023-03-13T01:49:26;95736.88;;;3.87;100.00
13604;BME280;24578;48.264;11.436;2023-03-13T01:52:50;95743.06;;;3.83;100.00
13604;BME280;24578;48.264;11.436;2023-03-13T01:56:24;95723.84;;;3.76;100.00
13604;BME280;24578;48.264;11.436;2023-03-13T02:00:07;95734.00;;;3.77;100.00
13604;BME280;24578;48.264;11.436;2023-03-13T02:03:33;95729.38;;;3.84;100.00
13604;BME280;24578;48.264;11.436;2023-03-13T02:07:02;95724.69;;;3.92;100.00
13604;BME280;24578;48.264;11.436;2023-03-13T02:10:25;95723.66;;;4.27;100.00
13604;BME280;24578;48.264;11.436;2023-03-13T02:13:49;95713.25;;;4.30;100.00
13604;BME280;24578;48.264;11.436;2023-03-13T02:17:12;95718.00;;;4.36;100.00
13604;BME280;24578;48.264;11.436;2023-03-13T02:20:34;95719.44;;;4.42;100.00
13604;BME280;24578;48.264;11.436;2023-03-13T02:24:27;95708.59;;;4.37;100.00
13604;BME280;24578;48.264;11.436;2023-03-13T02:28:14;95719.50;;;4.40;100.00
13604;BME280;24578;48.264;11.436;2023-03-13T02:31:36;95715.13;;;4.42;100.00
13604;BME280;24578;48.264;11.436;2023-03-13T02:35:05;95720.44;;;4.70;100.00
13604;BME280;24578;48.264;11.436;2023-03-13T02:38:31;95719.22;;;4.61;100.00
13604;BME280;24578;48.264;11.436;2023-03-13T02:41:56;95723.94;;;4.53;100.00
13604;BME280;24578;48.264;11.436;2023-03-13T02:45:19;95721.78;;;4.45;100.00
13604;BME280;24578;48.264;11.436;2023-03-13T02:48:44;95718.31;;;4.46;100.00
13604;BME280;24578;48.264;11.436;2023-03-13T02:52:15;95722.81;;;4.42;100.00
13604;BME280;24578;48.264;11.436;2023-03-13T02:55:40;95720.16;;;4.44;100.00
13604;BME280;24578;48.264;11.436;2023-03-13T02:59:02;95725.63;;;4.38;100.00
13604;BME280;24578;48.264;11.436;2023-03-13T03:02:23;95722.47;;;4.33;100.00
13604;BME280;24578;48.264;11.436;2023-03-13T03:05:45;95725.22;;;4.30;100.00
13604;BME280;24578;48.264;11.436;2023-03-13T03:09:07;95723.97;;;4.37;100.00
13604;BME280;24578;48.264;11.436;2023-03-13T03:12:28;95726.38;;;4.40;100.00
13604;BME280;24578;48.264;11.436;2023-03-13T03:15:50;95723.41;;;4.32;100.00
13604;BME280;24578;48.264;11.436;2023-03-13T03:19:12;95724.97;;;4.34;100.00
13604;BME280;24578;48.264;11.436;2023-03-13T03:22:34;95725.69;;;4.36;100.00
13604;BME280;24578;48.264;11.436;2023-03-13T03:25:58;95724.06;;;4.35;100.00
13604;BME280;24578;48.264;11.436;2023-03-13T03:29:20;95725.53;;;4.39;100.00
13604;BME280;24578;48.264;11.436;2023-03-13T03:32:42;95727.13;;;4.42;100.00
13604;BME280;24578;48.264;11.436;2023-03-13T03:36:06;95719.22;;;4.45;100.00
13604;BME280;24578;48.264;11.436;2023-03-13T03:39:29;95720.88;;;4.46;100.00
13604;BME280;24578;48.264;11.436;2023-03-13T03:42:51;95712.38;;;4.46;100.00
13604;BME280;24578;48.264;11.436;2023-03-13T03:46:13;95711.91;;;4.39;100.00
13604;BME280;24578;48.264;11.436;2023-03-13T03:49:35;95700.00;;;4.38;100.00
13604;BME280;24578;48.264;11.436;2023-03-13T03:52:57;95700.00;;;4.38;100.00
13604;BME280;24578;48.264;11.436;2023-03-13T03:56:18;95697.50;;;4.36;100.00
13604;BME280;24578;48.264;11.436;2023-03-13T03:59:40;95696.97;;;4.31;100.00
13604;BME280;24578;48.264;11.436;2023-03-13T04:03:02;95690.25;;;4.29;100.00
13604;BME280;24578;48.264;11.436;2023-03-13T04:06:24;95677.63;;;4.25;100.00
13604;BME280;24578;48.264;11.436;2023-03-13T04:09:45;95675.06;;;4.25;100.00
13604;BME280;24578;48.264;11.436;2023-03-13T04:13:07;95663.25;;;4.23;100.00
13604;BME280;24578;48.264;11.436;2023-03-13T04:16:29;95655.31;;;4.28;100.00
13604;BME280;24578;48.264;11.436;2023-03-13T04:19:51;95644.97;;;4.29;100.00
13604;BME280;24578;48.264;11.436;2023-03-13T04:23:12;95639.53;;;4.19;100.00
13604;BME280;24578;48.264;11.436;2023-03-13T04:26:34;95635.19;;;4.36;100.00
13604;BME280;24578;48.264;11.436;2023-03-13T04:29:56;95635.00;;;4.24;100.00
13604;BME280;24578;48.264;11.436;2023-03-13T04:33:19;95622.91;;;4.26;100.00
13604;BME280;24578;48.264;11.436;2023-03-13T04:36:40;95614.13;;;4.31;100.00
13604;BME280;24578;48.264;11.436;2023-03-13T04:40:02;95619.66;;;4.39;100.00
13604;BME280;24578;48.264;11.436;2023-03-13T04:43:24;95611.06;;;4.54;100.00
13604;BME280;24578;48.264;11.436;2023-03-13T04:46:47;95597.09;;;4.75;100.00
13604;BME280;24578;48.264;11.436;2023-03-13T04:50:09;95588.94;;;4.68;100.00
13604;BME280;24578;48.264;11.436;2023-03-13T04:53:31;95602.09;;;4.76;100.00
13604;BME280;24578;48.264;11.436;2023-03-13T04:56:52;95597.72;;;4.78;100.00
13604;BME280;24578;48.264;11.436;2023-03-13T05:00:14;95585.81;;;4.77;100.00
13604;BME280;24578;48.264;11.436;2023-03-13T05:03:36;95597.53;;;4.81;100.00
13604;BME280;24578;48.264;11.436;2023-03-13T05:06:58;95595.16;;;4.78;100.00
13604;BME280;24578;48.264;11.436;2023-03-13T05:10:20;95594.34;;;4.92;100.00
13604;BME280;24578;48.264;11.436;2023-03-13T05:13:41;95590.13;;;4.91;100.00
13604;BME280;24578;48.264;11.436;2023-03-13T05:17:03;95575.38;;;4.95;100.00
13604;BME280;24578;48.264;11.436;2023-03-13T05:20:25;95577.75;;;4.98;100.00
13604;BME280;24578;48.264;11.436;2023-03-13T05:23:46;95576.72;;;5.15;100.00
13604;BME280;24578;48.264;11.436;2023-03-13T05:27:08;95579.91;;;5.33;100.00
13604;BME280;24578;48.264;11.436;2023-03-13T05:30:32;95567.56;;;5.25;100.00
13604;BME280;24578;48.264;11.436;2023-03-13T05:33:54;95566.53;;;5.28;100.00
13604;BME280;24578;48.264;11.436;2023-03-13T05:37:16;95546.25;;;5.38;100.00
13604;BME280;24578;48.264;11.436;2023-03-13T05:40:38;95555.81;;;5.63;100.00
13604;BME280;24578;48.264;11.436;2023-03-13T05:44:00;95550.50;;;5.66;100.00
13604;BME280;24578;48.264;11.436;2023-03-13T05:47:22;95543.84;;;5.76;100.00
13604;BME280;24578;48.264;11.436;2023-03-13T05:50:44;95531.41;;;5.83;100.00
13604;BME280;24578;48.264;11.436;2023-03-13T05:54:06;95531.75;;;5.91;100.00
13604;BME280;24578;48.264;11.436;2023-03-13T05:57:27;95530.88;;;6.05;100.00
13604;BME280;24578;48.264;11.436;2023-03-13T06:00:49;95546.09;;;6.08;100.00
13604;BME280;24578;48.264;11.436;2023-03-13T06:04:11;95538.94;;;6.14;100.00
13604;BME280;24578;48.264;11.436;2023-03-13T06:07:33;95538.72;;;6.30;100.00
13604;BME280;24578;48.264;11.436;2023-03-13T06:10:58;95520.22;;;6.37;100.00
13604;BME280;24578;48.264;11.436;2023-03-13T06:14:20;95505.41;;;6.28;100.00
13604;BME280;24578;48.264;11.436;2023-03-13T06:17:42;95507.78;;;6.44;100.00
13604;BME280;24578;48.264;11.436;2023-03-13T06:21:04;95514.69;;;6.44;100.00
13604;BME280;24578;48.264;11.436;2023-03-13T06:24:26;95517.34;;;6.55;100.00
13604;BME280;24578;48.264;11.436;2023-03-13T06:27:47;95514.66;;;6.69;100.00
13604;BME280;24578;48.264;11.436;2023-03-13T06:31:09;95513.53;;;6.61;100.00
13604;BME280;24578;48.264;11.436;2023-03-13T06:34:31;95507.25;;;6.65;100.00
13604;BME280;24578;48.264;11.436;2023-03-13T06:37:53;95513.31;;;6.64;100.00
13604;BME280;24578;48.264;11.436;2023-03-13T06:41:14;95501.38;;;6.76;100.00
13604;BME280;24578;48.264;11.436;2023-03-13T06:44:36;95499.94;;;6.84;100.00
13604;BME280;24578;48.264;11.436;2023-03-13T06:47:58;95503.38;;;6.96;100.00
13604;BME280;24578;48.264;11.436;2023-03-13T06:51:21;95507.50;;;6.99;100.00
13604;BME280;24578;48.264;11.436;2023-03-13T06:54:43;95504.44;;;6.94;100.00
13604;BME280;24578;48.264;11.436;2023-03-13T06:58:04;95497.31;;;6.97;100.00
13604;BME280;24578;48.264;11.436;2023-03-13T07:01:26;95500.31;;;6.91;100.00
13604;BME280;24578;48.264;11.436;2023-03-13T07:04:48;95493.94;;;6.97;100.00
13604;BME280;24578;48.264;11.436;2023-03-13T07:08:09;95491.69;;;6.92;100.00
13604;BME280;24578;48.264;11.436;2023-03-13T07:11:31;95496.78;;;7.05;100.00
13604;BME280;24578;48.264;11.436;2023-03-13T07:14:53;95495.69;;;7.21;100.00
13604;BME280;24578;48.264;11.436;2023-03-13T07:18:15;95492.22;;;7.46;100.00
13604;BME280;24578;48.264;11.436;2023-03-13T07:21:37;95495.38;;;7.50;100.00
13604;BME280;24578;48.264;11.436;2023-03-13T07:24:58;95486.72;;;7.51;100.00
13604;BME280;24578;48.264;11.436;2023-03-13T07:28:21;95501.63;;;7.58;100.00
13604;BME280;24578;48.264;11.436;2023-03-13T07:31:43;95502.94;;;7.64;100.00
13604;BME280;24578;48.264;11.436;2023-03-13T07:35:05;95496.75;;;7.67;100.00
13604;BME280;24578;48.264;11.436;2023-03-13T07:38:27;95487.84;;;7.71;100.00
13604;BME280;24578;48.264;11.436;2023-03-13T07:41:49;95492.34;;;7.80;100.00
13604;BME280;24578;48.264;11.436;2023-03-13T07:45:10;95479.28;;;8.06;100.00
13604;BME280;24578;48.264;11.436;2023-03-13T07:48:37;95476.00;;;8.51;100.00
13604;BME280;24578;48.264;11.436;2023-03-13T07:51:59;95477.97;;;9.37;100.00
13604;BME280;24578;48.264;11.436;2023-03-13T07:55:21;95466.25;;;10.19;100.00
13604;BME280;24578;48.264;11.436;2023-03-13T07:58:43;95467.28;;;10.16;100.00
13604;BME280;24578;48.264;11.436;2023-03-13T08:02:05;95464.06;;;10.24;100.00
13604;BME280;24578;48.264;11.436;2023-03-13T08:05:27;95462.72;;;10.51;100.00
13604;BME280;24578;48.264;11.436;2023-03-13T08:08:50;95461.75;;;10.83;100.00
13604;BME280;24578;48.264;11.436;2023-03-13T08:12:12;95463.25;;;11.26;100.00
13604;BME280;24578;48.264;11.436;2023-03-13T08:15:34;95472.00;;;11.65;100.00
13604;BME280;24578;48.264;11.436;2023-03-13T08:18:57;95468.31;;;11.77;100.00
13604;BME280;24578;48.264;11.436;2023-03-13T08:22:19;95479.50;;;11.68;100.00
13604;BME280;24578;48.264;11.436;2023-03-13T08:25:41;95471.69;;;11.38;100.00
13604;BME280;24578;48.264;11.436;2023-03-13T08:29:09;95468.00;;;11.21;100.00
13604;BME280;24578;48.264;11.436;2023-03-13T08:32:35;95464.72;;;11.19;100.00
13604;BME280;24578;48.264;11.436;2023-03-13T08:35:57;95474.88;;;11.42;100.00
13604;BME280;24578;48.264;11.436;2023-03-13T08:39:19;95464.81;;;12.45;100.00
13604;BME280;24578;48.264;11.436;2023-03-13T08:42:41;95456.34;;;14.18;99.81
13604;BME280;24578;48.264;11.436;2023-03-13T08:46:03;95454.50;;;14.62;90.01
13604;BME280;24578;48.264;11.436;2023-03-13T08:49:25;95455.78;;;14.58;86.89
13604;BME280;24578;48.264;11.436;2023-03-13T08:52:47;95450.81;;;15.08;82.99
13604;BME280;24578;48.264;11.436;2023-03-13T08:56:11;95451.72;;;16.41;78.05
13604;BME280;24578;48.264;11.436;2023-03-13T08:59:33;95437.63;;;18.46;61.48
13604;BME280;24578;48.264;11.436;2023-03-13T09:02:58;95436.56;;;18.55;54.78
13604;BME280;24578;48.264;11.436;2023-03-13T09:06:20;95433.13;;;17.55;56.08
13604;BME280;24578;48.264;11.436;2023-03-13T09:09:42;95438.31;;;17.09;58.57
13604;BME280;24578;48.264;11.436;2023-03-13T09:13:04;95433.78;;;17.02;57.72
13604;BME280;24578;48.264;11.436;2023-03-13T09:16:29;95425.31;;;19.22;51.27
13604;BME280;24578;48.264;11.436;2023-03-13T09:19:51;95404.84;;;21.98;42.52
13604;BME280;24578;48.264;11.436;2023-03-13T09:23:16;95394.28;;;22.52;39.91
13604;BME280;24578;48.264;11.436;2023-03-13T09:26:38;95385.94;;;23.21;37.47
13604;BME280;24578;48.264;11.436;2023-03-13T09:29:59;95369.34;;;24.47;35.38
13604;BME280;24578;48.264;11.436;2023-03-13T09:33:21;95369.28;;;25.21;32.86
13604;BME280;24578;48.264;11.436;2023-03-13T09:36:44;95365.03;;;24.90;31.94
13604;BME280;24578;48.264;11.436;2023-03-13T09:40:12;95348.66;;;24.93;32.25
13604;BME280;24578;48.264;11.436;2023-03-13T09:43:50;95347.88;;;24.92;32.04
13604;BME280;24578;48.264;11.436;2023-03-13T09:47:22;95358.91;;;24.52;32.08
13604;BME280;24578;48.264;11.436;2023-03-13T09:51:39;95354.13;;;25.71;30.50
13604;BME280;24578;48.264;11.436;2023-03-13T09:54:41;95347.03;;;25.41;29.47
13604;BME280;24578;48.264;11.436;2023-03-13T09:58:18;95342.03;;;23.84;31.86
13604;BME280;24578;48.264;11.436;2023-03-13T10:01:43;95344.81;;;23.38;32.95
13604;BME280;24578;48.264;11.436;2023-03-13T10:05:09;95343.59;;;22.43;33.93
13604;BME280;24578;48.264;11.436;2023-03-13T10:08:34;95337.38;;;21.84;36.18
13604;BME280;24578;48.264;11.436;2023-03-13T10:15:27;95327.72;;;20.89;39.26
13604;BME280;24578;48.264;11.436;2023-03-13T10:18:57;95325.66;;;19.72;40.72
13604;BME280;24578;48.264;11.436;2023-03-13T10:22:24;95318.97;;;20.26;40.91
13604;BME280;24578;48.264;11.436;2023-03-13T10:25:47;95306.38;;;20.63;38.30
13604;BME280;24578;48.264;11.436;2023-03-13T10:29:25;95301.50;;;21.96;37.22
13604;BME280;24578;48.264;11.436;2023-03-13T10:32:47;95297.44;;;22.00;36.95
13604;BME280;24578;48.264;11.436;2023-03-13T10:36:12;95308.34;;;21.03;38.71
13604;BME280;24578;48.264;11.436;2023-03-13T10:39:33;95314.91;;;20.23;40.86
13604;BME280;24578;48.264;11.436;2023-03-13T10:43:02;95303.81;;;19.93;41.52
13604;BME280;24578;48.264;11.436;2023-03-13T10:46:29;95297.28;;;20.59;40.51
13604;BME280;24578;48.264;11.436;2023-03-13T10:49:56;95295.38;;;20.95;39.81
13604;BME280;24578;48.264;11.436;2023-03-13T10:56:50;95300.50;;;21.43;39.13
13604;BME280;24578;48.264;11.436;2023-03-13T11:03:57;95310.09;;;19.99;41.65
13604;BME280;24578;48.264;11.436;2023-03-13T11:07:36;95296.00;;;19.78;42.25
13604;BME280;24578;48.264;11.436;2023-03-13T11:11:01;95300.09;;;18.72;44.88
13604;BME280;24578;48.264;11.436;2023-03-13T11:14:24;95312.81;;;19.33;44.28
13604;BME280;24578;48.264;11.436;2023-03-13T11:18:43;95295.47;;;20.66;40.44
13604;BME280;24578;48.264;11.436;2023-03-13T11:32:36;95280.06;;;21.79;38.84
13604;BME280;24578;48.264;11.436;2023-03-13T11:47:25;95257.88;;;22.20;37.59
13604;BME280;24578;48.264;11.436;2023-03-13T11:50:57;95241.00;;;22.28;37.43
13604;BME280;24578;48.264;11.436;2023-03-13T12:01:53;95238.28;;;20.75;41.42
13604;BME280;24578;48.264;11.436;2023-03-13T12:05:19;95239.16;;;21.70;39.56
13604;BME280;24578;48.264;11.436;2023-03-13T12:08:52;95221.94;;;21.67;40.05
13604;BME280;24578;48.264;11.436;2023-03-13T12:15:53;95217.66;;;21.93;38.36
13604;BME280;24578;48.264;11.436;2023-03-13T12:19:25;95214.75;;;22.08;37.89
13604;BME280;24578;48.264;11.436;2023-03-13T12:23:20;95206.13;;;21.67;40.22
13604;BME280;24578;48.264;11.436;2023-03-13T12:26:59;95188.78;;;22.12;38.90
13604;BME280;24578;48.264;11.436;2023-03-13T12:30:39;95181.97;;;22.36;37.91
13604;BME280;24578;48.264;11.436;2023-03-13T12:34:46;95175.34;;;22.27;37.92
13604;BME280;24578;48.264;11.436;2023-03-13T12:38:40;95172.31;;;22.30;37.91
13604;BME280;24578;48.264;11.436;2023-03-13T12:49:36;95149.59;;;22.29;39.37
13604;BME280;24578;48.264;11.436;2023-03-13T12:53:31;95146.44;;;21.61;40.58
13604;BME280;24578;48.264;11.436;2023-03-13T13:00:42;95134.88;;;21.42;41.48
13604;BME280;24578;48.264;11.436;2023-03-13T13:04:14;95115.59;;;21.75;40.64
13604;BME280;24578;48.264;11.436;2023-03-13T13:07:38;95124.81;;;21.98;40.51
13604;BME280;24578;48.264;11.436;2023-03-13T13:15:15;95105.38;;;22.95;39.02
13604;BME280;24578;48.264;11.436;2023-03-13T13:18:38;95098.47;;;23.38;37.52
13604;BME280;24578;48.264;11.436;2023-03-13T13:29:53;95081.94;;;23.05;37.01
13604;BME280;24578;48.264;11.436;2023-03-13T13:36:41;95072.34;;;22.28;39.62
13604;BME280;24578;48.264;11.436;2023-03-13T13:43:39;95058.19;;;22.23;38.96
13604;BME280;24578;48.264;11.436;2023-03-13T13:47:02;95041.19;;;22.50;39.05
13604;BME280;24578;48.264;11.436;2023-03-13T13:50:27;95032.69;;;22.74;38.03
13604;BME280;24578;48.264;11.436;2023-03-13T13:53:55;95031.69;;;22.49;38.88
13604;BME280;24578;48.264;11.436;2023-03-13T13:57:25;95030.50;;;22.45;38.61
13604;BME280;24578;48.264;11.436;2023-03-13T14:01:06;95018.06;;;22.78;38.57
13604;BME280;24578;48.264;11.436;2023-03-13T14:04:41;95018.88;;;22.78;38.88
13604;BME280;24578;48.264;11.436;2023-03-13T14:08:16;94998.63;;;22.72;37.98
13604;BME280;24578;48.264;11.436;2023-03-13T14:11:40;94994.84;;;22.36;38.64
13604;BME280;24578;48.264;11.436;2023-03-13T14:15:29;94980.44;;;22.45;37.84
13604;BME280;24578;48.264;11.436;2023-03-13T14:18:51;94962.06;;;22.32;37.28
13604;BME280;24578;48.264;11.436;2023-03-13T14:22:13;94955.47;;;22.41;38.89
13604;BME280;24578;48.264;11.436;2023-03-13T14:25:48;94955.72;;;22.65;38.41
13604;BME280;24578;48.264;11.436;2023-03-13T14:29:20;94948.00;;;22.38;38.71
13604;BME280;24578;48.264;11.436;2023-03-13T14:32:47;94940.59;;;22.28;38.26
13604;BME280;24578;48.264;11.436;2023-03-13T14:36:09;94933.03;;;22.13;38.67
13604;BME280;24578;48.264;11.436;2023-03-13T14:42:59;94925.19;;;21.74;40.02
13604;BME280;24578;48.264;11.436;2023-03-13T14:46:29;94910.44;;;21.99;39.51
13604;BME280;24578;48.264;11.436;2023-03-13T14:49:59;94903.59;;;21.91;39.32
13604;BME280;24578;48.264;11.436;2023-03-13T14:53:21;94890.06;;;21.62;38.63
13604;BME280;24578;48.264;11.436;2023-03-13T14:56:43;94888.00;;;21.64;39.73
13604;BME280;24578;48.264;11.436;2023-03-13T15:03:51;94885.56;;;20.78;41.19
13604;BME280;24578;48.264;11.436;2023-03-13T15:07:13;94886.81;;;20.76;41.43
13604;BME280;24578;48.264;11.436;2023-03-13T15:10:35;94874.53;;;20.49;41.49
13604;BME280;24578;48.264;11.436;2023-03-13T15:13:57;94859.78;;;20.42;41.63
13604;BME280;24578;48.264;11.436;2023-03-13T15:17:26;94856.63;;;20.06;42.33
13604;BME280;24578;48.264;11.436;2023-03-13T15:24:48;94837.19;;;19.73;43.06
13604;BME280;24578;48.264;11.436;2023-03-13T15:28:15;94831.97;;;19.53;43.07
13604;BME280;24578;48.264;11.436;2023-03-13T15:31:38;94816.81;;;19.42;43.40
13604;BME280;24578;48.264;11.436;2023-03-13T15:35:00;94817.81;;;19.21;44.50
13604;BME280;24578;48.264;11.436;2023-03-13T15:38:26;94814.19;;;19.35;43.87
13604;BME280;24578;48.264;11.436;2023-03-13T15:41:48;94806.72;;;19.32;44.02
13604;BME280;24578;48.264;11.436;2023-03-13T15:45:10;94795.59;;;19.16;44.29
13604;BME280;24578;48.264;11.436;2023-03-13T15:48:31;94782.66;;;19.08;45.00
13604;BME280;24578;48.264;11.436;2023-03-13T15:51:53;94782.09;;;19.06;44.92
13604;BME280;24578;48.264;11.436;2023-03-13T15:55:15;94777.78;;;18.92;45.16
13604;BME280;24578;48.264;11.436;2023-03-13T15:58:36;94760.69;;;18.96;45.34
13604;BME280;24578;48.264;11.436;2023-03-13T16:01:58;94762.09;;;18.98;45.70
13604;BME280;24578;48.264;11.436;2023-03-13T16:05:20;94756.88;;;19.19;45.36
13604;BME280;24578;48.264;11.436;2023-03-13T16:08:43;94755.66;;;19.21;44.92
13604;BME280;24578;48.264;11.436;2023-03-13T16:12:06;94753.25;;;19.06;45.21
13604;BME280;24578;48.264;11.436;2023-03-13T16:15:28;94742.47;;;18.74;45.92
13604;BME280;24578;48.264;11.436;2023-03-13T16:18:51;94732.31;;;18.44;46.49
13604;BME280;24578;48.264;11.436;2023-03-13T16:22:13;94721.78;;;18.31;46.98
13604;BME280;24578;48.264;11.436;2023-03-13T16:25:36;94722.06;;;18.01;48.17
13604;BME280;24578;48.264;11.436;2023-03-13T16:28:58;94715.81;;;18.02;48.15
13604;BME280;24578;48.264;11.436;2023-03-13T16:32:20;94710.88;;;17.85;48.65
13604;BME280;24578;48.264;11.436;2023-03-13T16:35:44;94695.28;;;17.63;49.12
13604;BME280;24578;48.264;11.436;2023-03-13T16:39:13;94693.66;;;17.62;49.49
13604;BME280;24578;48.264;11.436;2023-03-13T16:42:35;94693.78;;;17.54;49.12
13604;BME280;24578;48.264;11.436;2023-03-13T16:45:56;94685.25;;;17.39;50.49
13604;BME280;24578;48.264;11.436;2023-03-13T16:49:18;94677.41;;;17.39;49.38
13604;BME280;24578;48.264;11.436;2023-03-13T16:52:40;94670.84;;;17.21;50.45
13604;BME280;24578;48.264;11.436;2023-03-13T16:56:02;94673.31;;;17.01;50.84
13604;BME280;24578;48.264;11.436;2023-03-13T16:59:23;94655.78;;;17.23;50.55
13604;BME280;24578;48.264;11.436;2023-03-13T17:02:46;94656.44;;;16.82;51.78
13604;BME280;24578;48.264;11.436;2023-03-13T17:06:17;94657.34;;;16.67;52.21
13604;BME280;24578;48.264;11.436;2023-03-13T17:09:40;94652.72;;;16.48;53.09
13604;BME280;24578;48.264;11.436;2023-03-13T17:13:01;94658.72;;;16.41;53.32
13604;BME280;24578;48.264;11.436;2023-03-13T17:16:35;94643.56;;;16.15;53.82
13604;BME280;24578;48.264;11.436;2023-03-13T17:19:59;94636.66;;;16.07;55.15
13604;BME280;24578;48.264;11.436;2023-03-13T17:23:20;94636.63;;;15.86;55.74
13604;BME280;24578;48.264;11.436;2023-03-13T17:26:42;94626.97;;;15.71;57.00
13604;BME280;24578;48.264;11.436;2023-03-13T17:33:39;94617.22;;;15.43;58.61
13604;BME280;24578;48.264;11.436;2023-03-13T17:37:04;94616.22;;;15.29;60.13
13604;BME280;24578;48.264;11.436;2023-03-13T17:40:30;94608.66;;;15.19;60.12
13604;BME280;24578;48.264;11.436;2023-03-13T17:43:53;94610.44;;;15.04;60.99
13604;BME280;24578;48.264;11.436;2023-03-13T17:47:20;94608.38;;;14.84;62.62
13604;BME280;24578;48.264;11.436;2023-03-13T17:50:44;94618.63;;;14.62;65.01
13604;BME280;24578;48.264;11.436;2023-03-13T17:54:09;94621.91;;;14.33;67.32
13604;BME280;24578;48.264;11.436;2023-03-13T17:57:44;94612.13;;;14.12;68.50
13604;BME280;24578;48.264;11.436;2023-03-13T18:01:12;94623.81;;;13.93;70.00
13604;BME280;24578;48.264;11.436;2023-03-13T18:04:35;94612.38;;;13.70;72.77
13604;BME280;24578;48.264;11.436;2023-03-13T18:07:56;94615.38;;;13.51;75.47
13604;BME280;24578;48.264;11.436;2023-03-13T18:11:19;94622.56;;;13.32;78.21
13604;BME280;24578;48.264;11.436;2023-03-13T18:14:42;94618.56;;;13.21;79.15
13604;BME280;24578;48.264;11.436;2023-03-13T18:18:04;94599.22;;;13.24;80.59
13604;BME280;24578;48.264;11.436;2023-03-13T18:21:26;94599.81;;;13.34;79.86
13604;BME280;24578;48.264;11.436;2023-03-13T18:24:47;94586.19;;;13.32;79.42
13604;BME280;24578;48.264;11.436;2023-03-13T18:28:10;94587.47;;;13.36;78.03
13604;BME280;24578;48.264;11.436;2023-03-13T18:31:34;94573.38;;;13.31;77.08
13604;BME280;24578;48.264;11.436;2023-03-13T18:34:56;94567.00;;;13.33;75.20
13604;BME280;24578;48.264;11.436;2023-03-13T18:38:18;94561.44;;;13.53;73.39
13604;BME280;24578;48.264;11.436;2023-03-13T18:41:40;94541.66;;;13.35;74.04
13604;BME280;24578;48.264;11.436;2023-03-13T18:45:02;94531.00;;;13.30;72.52
13604;BME280;24578;48.264;11.436;2023-03-13T18:48:24;94519.09;;;13.36;70.83
13604;BME280;24578;48.264;11.436;2023-03-13T18:51:46;94506.00;;;13.21;70.88
13604;BME280;24578;48.264;11.436;2023-03-13T18:55:08;94483.66;;;13.12;70.57
13604;BME280;24578;48.264;11.436;2023-03-13T18:58:30;94479.50;;;12.94;71.16
13604;BME280;24578;48.264;11.436;2023-03-13T19:01:52;94462.81;;;12.88;70.16
13604;BME280;24578;48.264;11.436;2023-03-13T19:05:16;94463.66;;;12.81;69.26
13604;BME280;24578;48.264;11.436;2023-03-13T19:08:38;94460.09;;;12.73;69.59
13604;BME280;24578;48.264;11.436;2023-03-13T19:12:00;94457.84;;;12.70;68.75
13604;BME280;24578;48.264;11.436;2023-03-13T19:15:25;94456.75;;;12.56;68.65
13604;BME280;24578;48.264;11.436;2023-03-13T19:18:49;94451.75;;;12.46;68.28